createdAt,value
2017-02-13T00:00:28.986Z,0
2017-02-13T00:01:38.493Z,0
2017-02-13T00:02:47.465Z,0
2017-02-13T00:03:56.454Z,0
2017-02-13T00:05:05.559Z,0
2017-02-13T00:06:14.644Z,0
2017-02-13T00:07:23.615Z,0
2017-02-13T00:08:32.945Z,0
2017-02-13T00:09:42.011Z,0
2017-02-13T00:10:51.006Z,0
2017-02-13T00:12:00.071Z,0
2017-02-13T00:13:09.050Z,0
2017-02-13T00:14:18.026Z,0
2017-02-13T00:15:27.123Z,0
2017-02-13T00:16:36.111Z,0
2017-02-13T00:17:45.085Z,0
2017-02-13T00:18:54.469Z,0
2017-02-13T00:20:03.441Z,0
2017-02-13T00:21:12.416Z,0
2017-02-13T00:22:21.388Z,0
2017-02-13T00:23:30.355Z,0
2017-02-13T00:24:39.430Z,0
2017-02-13T00:25:48.418Z,0
2017-02-13T00:26:57.417Z,0
2017-02-13T00:28:06.420Z,0
2017-02-13T00:29:15.408Z,0
2017-02-13T00:30:24.377Z,0
2017-02-13T00:31:33.348Z,0
2017-02-13T00:32:42.313Z,0
2017-02-13T00:33:51.290Z,0
2017-02-13T00:35:00.267Z,0
2017-02-13T00:36:09.272Z,0
2017-02-13T00:37:18.255Z,0
2017-02-13T00:38:27.239Z,0
2017-02-13T00:39:36.212Z,0
2017-02-13T00:40:45.586Z,0
2017-02-13T00:41:54.579Z,0
2017-02-13T00:43:03.557Z,0
2017-02-13T00:44:12.532Z,0
2017-02-13T00:45:21.775Z,0
2017-02-13T00:46:30.755Z,0
2017-02-13T00:47:39.740Z,0
2017-02-13T00:48:48.794Z,0
2017-02-13T00:49:57.763Z,0
2017-02-13T00:51:06.741Z,0
2017-02-13T00:52:15.725Z,0
2017-02-13T00:53:24.715Z,0
2017-02-13T00:54:33.784Z,0
2017-02-13T00:55:42.784Z,0
2017-02-13T00:56:51.860Z,0
2017-02-13T00:58:01.321Z,0
2017-02-13T00:59:10.287Z,0
2017-02-13T01:00:19.271Z,0
2017-02-13T01:01:28.253Z,0
2017-02-13T01:02:37.338Z,0
2017-02-13T01:03:46.348Z,0
2017-02-13T01:04:55.340Z,0
2017-02-13T01:06:04.319Z,0
2017-02-13T01:07:13.294Z,0
2017-02-13T01:08:22.271Z,0
2017-02-13T01:09:31.266Z,0
2017-02-13T01:10:40.640Z,0
2017-02-13T01:11:49.625Z,0
2017-02-13T01:12:58.596Z,0
2017-02-13T01:14:08.183Z,0
2017-02-13T01:15:17.168Z,0
2017-02-13T01:16:26.235Z,0
2017-02-13T01:17:35.240Z,0
2017-02-13T01:18:44.226Z,0
2017-02-13T01:19:53.198Z,0
2017-02-13T01:21:02.284Z,0
2017-02-13T01:22:11.257Z,0
2017-02-13T01:23:20.412Z,0
2017-02-13T01:24:29.396Z,0
2017-02-13T01:25:38.382Z,0
2017-02-13T01:26:47.368Z,0
2017-02-13T01:27:56.342Z,0
2017-02-13T01:29:05.488Z,0
2017-02-13T01:30:14.465Z,0
2017-02-13T01:31:23.475Z,0
2017-02-13T01:32:32.448Z,0
2017-02-13T01:33:41.528Z,0
2017-02-13T01:34:50.526Z,0
2017-02-13T01:35:59.591Z,0
2017-02-13T01:37:08.978Z,0
2017-02-13T01:38:17.965Z,0
2017-02-13T01:39:26.935Z,0
2017-02-13T01:40:35.930Z,0
2017-02-13T01:41:44.899Z,0
2017-02-13T01:42:53.893Z,0
2017-02-13T01:44:02.962Z,0
2017-02-13T01:45:11.936Z,0
2017-02-13T01:46:20.918Z,0
2017-02-13T01:47:29.915Z,0
2017-02-13T01:48:38.970Z,0
2017-02-13T01:49:47.980Z,0
2017-02-13T01:50:56.957Z,0
2017-02-13T01:52:05.951Z,0
2017-02-13T01:53:15.035Z,0
2017-02-13T01:54:24.027Z,0
2017-02-13T01:55:33.430Z,0
2017-02-13T01:56:42.404Z,0
2017-02-13T01:57:51.378Z,0
2017-02-13T01:59:00.366Z,0
2017-02-13T02:00:09.355Z,0
2017-02-13T02:01:18.325Z,0
2017-02-13T02:02:27.405Z,0
2017-02-13T02:03:36.386Z,0
2017-02-13T02:04:45.376Z,0
2017-02-13T02:05:54.365Z,0
2017-02-13T02:07:03.425Z,0
2017-02-13T02:08:12.414Z,0
2017-02-13T02:09:21.403Z,0
2017-02-13T02:10:30.377Z,0
2017-02-13T02:11:39.345Z,0
2017-02-13T02:12:48.346Z,0
2017-02-13T02:13:57.738Z,0
2017-02-13T02:15:06.716Z,0
2017-02-13T02:16:15.693Z,0
2017-02-13T02:17:24.663Z,0
2017-02-13T02:18:33.633Z,0
2017-02-13T02:19:44.462Z,0
2017-02-13T02:20:53.450Z,0
2017-02-13T02:22:03.144Z,0
2017-02-13T02:23:12.568Z,0
2017-02-13T02:24:22.615Z,0
2017-02-13T02:25:32.158Z,0
2017-02-13T02:26:42.827Z,0
2017-02-13T02:27:53.828Z,0
2017-02-13T02:29:03.358Z,0
2017-02-13T02:30:13.153Z,0
2017-02-13T02:31:22.409Z,0
2017-02-13T02:32:31.413Z,0
2017-02-13T02:33:41.119Z,0
2017-02-13T02:34:50.178Z,0
2017-02-13T02:35:59.338Z,0
2017-02-13T02:37:08.325Z,0
2017-02-13T02:38:17.395Z,0
2017-02-13T02:39:26.359Z,0
2017-02-13T02:40:35.343Z,0
2017-02-13T02:41:44.817Z,0
2017-02-13T02:42:53.822Z,0
2017-02-13T02:44:02.846Z,0
2017-02-13T02:45:11.829Z,0
2017-02-13T02:46:20.795Z,0
2017-02-13T02:47:29.776Z,0
2017-02-13T02:48:38.747Z,0
2017-02-13T02:49:47.815Z,0
2017-02-13T02:50:56.794Z,0
2017-02-13T02:52:05.775Z,0
2017-02-13T02:53:14.851Z,0
2017-02-13T02:54:23.853Z,0
2017-02-13T02:55:32.845Z,0
2017-02-13T02:56:41.818Z,0
2017-02-13T02:57:50.805Z,0
2017-02-13T02:58:59.875Z,0
2017-02-13T03:00:08.875Z,0
2017-02-13T03:01:17.874Z,0
2017-02-13T03:02:26.884Z,0
2017-02-13T03:03:35.872Z,0
2017-02-13T03:04:44.838Z,0
2017-02-13T03:05:54.087Z,0
2017-02-13T03:07:03.081Z,0
2017-02-13T03:08:12.061Z,0
2017-02-13T03:09:21.119Z,0
2017-02-13T03:10:30.256Z,0
2017-02-13T03:11:39.227Z,0
2017-02-13T03:12:48.197Z,0
2017-02-13T03:13:57.187Z,0
2017-02-13T03:15:06.921Z,0
2017-02-13T03:16:17.793Z,0
2017-02-13T03:17:28.681Z,0
2017-02-13T03:18:37.651Z,0
2017-02-13T03:19:47.783Z,0
2017-02-13T03:20:56.773Z,0
2017-02-13T03:22:08.208Z,0
2017-02-13T03:23:18.169Z,0
2017-02-13T03:24:27.643Z,0
2017-02-13T03:25:37.053Z,0
2017-02-13T03:26:46.041Z,0
2017-02-13T03:27:56.049Z,0
2017-02-13T03:29:05.287Z,0
2017-02-13T03:30:15.174Z,0
2017-02-13T03:31:25.566Z,0
2017-02-13T03:32:35.817Z,0
2017-02-13T03:33:44.784Z,0
2017-02-13T03:34:56.630Z,0
2017-02-13T03:36:06.848Z,0
2017-02-13T03:37:17.965Z,0
2017-02-13T03:38:28.244Z,0
2017-02-13T03:39:37.222Z,0
2017-02-13T03:40:48.430Z,0
2017-02-13T03:41:57.396Z,0
2017-02-13T03:43:08.207Z,0
2017-02-13T03:44:18.326Z,0
2017-02-13T03:45:27.596Z,0
2017-02-13T03:46:37.128Z,0
2017-02-13T03:47:46.681Z,0
2017-02-13T03:48:56.021Z,0
2017-02-13T03:50:05.911Z,0
2017-02-13T03:51:15.098Z,0
2017-02-13T03:52:25.380Z,0
2017-02-13T03:53:35.733Z,0
2017-02-13T03:54:44.792Z,0
2017-02-13T03:55:55.046Z,0
2017-02-13T03:57:04.064Z,0
2017-02-13T03:58:15.403Z,0
2017-02-13T03:59:25.024Z,0
2017-02-13T04:00:35.181Z,0
2017-02-13T04:01:44.822Z,0
2017-02-13T04:02:55.675Z,0
2017-02-13T04:04:05.480Z,0
2017-02-13T04:05:14.544Z,0
2017-02-13T04:06:24.681Z,0
2017-02-13T04:07:33.661Z,0
2017-02-13T04:08:43.554Z,0
2017-02-13T04:09:52.526Z,0
2017-02-13T04:11:02.462Z,0
2017-02-13T04:12:11.605Z,0
2017-02-13T04:13:21.463Z,0
2017-02-13T04:14:30.455Z,0
2017-02-13T04:15:41.936Z,0
2017-02-13T04:16:52.026Z,0
2017-02-13T04:18:01.215Z,0
2017-02-13T04:19:11.049Z,0
2017-02-13T04:20:20.218Z,0
2017-02-13T04:21:29.786Z,0
2017-02-13T04:22:38.802Z,0
2017-02-13T04:23:49.253Z,0
2017-02-13T04:24:59.544Z,0
2017-02-13T04:26:09.698Z,0
2017-02-13T04:27:18.807Z,0
2017-02-13T04:28:29.217Z,0
2017-02-13T04:29:38.294Z,0
2017-02-13T04:30:47.526Z,0
2017-02-13T04:31:56.635Z,0
2017-02-13T04:33:06.153Z,0
2017-02-13T04:34:15.129Z,0
2017-02-13T04:35:24.962Z,0
2017-02-13T04:36:33.962Z,0
2017-02-13T04:37:43.624Z,0
2017-02-13T04:38:52.773Z,0
2017-02-13T04:40:02.815Z,0
2017-02-13T04:41:11.787Z,0
2017-02-13T04:42:23.325Z,0
2017-02-13T04:43:32.295Z,0
2017-02-13T04:44:42.142Z,0
2017-02-13T04:45:52.009Z,0
2017-02-13T04:47:01.686Z,0
2017-02-13T04:48:11.414Z,0
2017-02-13T04:49:20.661Z,0
2017-02-13T04:50:29.922Z,0
2017-02-13T04:51:38.931Z,0
2017-02-13T04:52:48.765Z,0
2017-02-13T04:54:00.283Z,0
2017-02-13T04:55:10.168Z,0
2017-02-13T04:56:19.150Z,0
2017-02-13T04:57:29.105Z,0
2017-02-13T04:58:38.172Z,0
2017-02-13T04:59:48.284Z,0
2017-02-13T05:00:57.351Z,0
2017-02-13T05:02:07.982Z,0
2017-02-13T05:03:16.943Z,0
2017-02-13T05:04:26.740Z,0
2017-02-13T05:05:36.202Z,0
2017-02-13T05:06:46.360Z,0
2017-02-13T05:07:56.838Z,0
2017-02-13T05:09:08.178Z,0
2017-02-13T05:10:18.013Z,0
2017-02-13T05:11:26.988Z,0
2017-02-13T05:12:36.853Z,0
2017-02-13T05:13:45.919Z,0
2017-02-13T05:14:55.736Z,0
2017-02-13T05:16:04.715Z,0
2017-02-13T05:17:16.326Z,0
2017-02-13T05:18:26.363Z,0
2017-02-13T05:19:35.790Z,0
2017-02-13T05:20:45.859Z,0
2017-02-13T05:21:56.143Z,0
2017-02-13T05:23:06.260Z,0
2017-02-13T05:24:15.237Z,0
2017-02-13T05:25:24.934Z,0
2017-02-13T05:26:33.922Z,0
2017-02-13T05:27:44.179Z,0
2017-02-13T05:28:53.225Z,0
2017-02-13T05:30:03.257Z,0
2017-02-13T05:31:12.253Z,0
2017-02-13T05:32:23.644Z,0
2017-02-13T05:33:33.178Z,0
2017-02-13T05:34:43.073Z,0
2017-02-13T05:35:52.737Z,0
2017-02-13T05:37:01.710Z,0
2017-02-13T05:38:11.966Z,0
2017-02-13T05:39:22.472Z,0
2017-02-13T05:40:32.692Z,0
2017-02-13T05:41:42.119Z,0
2017-02-13T05:42:53.286Z,0
2017-02-13T05:44:02.269Z,0
2017-02-13T05:45:13.157Z,0
2017-02-13T05:46:22.175Z,0
2017-02-13T05:47:31.250Z,0
2017-02-13T05:48:40.230Z,0
2017-02-13T05:49:49.950Z,0
2017-02-13T05:50:58.923Z,0
2017-02-13T05:52:08.923Z,0
2017-02-13T05:53:18.592Z,0
2017-02-13T05:54:27.985Z,0
2017-02-13T05:55:38.078Z,0
2017-02-13T05:56:47.152Z,0
2017-02-13T05:57:56.587Z,4
2017-02-13T05:59:05.642Z,0
2017-02-13T06:00:15.827Z,0
2017-02-13T06:01:25.239Z,4
2017-02-13T06:02:34.758Z,0
2017-02-13T06:03:45.541Z,4
2017-02-13T06:04:56.377Z,4
2017-02-13T06:06:05.359Z,4
2017-02-13T06:07:16.933Z,8
2017-02-13T06:08:27.571Z,8
2017-02-13T06:09:37.264Z,8
2017-02-13T06:10:46.241Z,12
2017-02-13T06:11:56.264Z,12
2017-02-13T06:13:07.051Z,16
2017-02-13T06:14:16.034Z,20
2017-02-13T06:15:27.719Z,20
2017-02-13T06:16:38.187Z,20
2017-02-13T06:17:47.557Z,24
2017-02-13T06:18:57.021Z,32
2017-02-13T06:20:07.210Z,32
2017-02-13T06:21:17.832Z,40
2017-02-13T06:22:26.815Z,44
2017-02-13T06:23:37.073Z,52
2017-02-13T06:24:46.056Z,56
2017-02-13T06:25:55.038Z,64
2017-02-13T06:27:04.018Z,72
2017-02-13T06:28:12.986Z,76
2017-02-13T06:29:22.069Z,80
2017-02-13T06:30:31.042Z,92
2017-02-13T06:31:40.028Z,96
2017-02-13T06:32:49.001Z,108
2017-02-13T06:33:57.987Z,116
2017-02-13T06:35:06.969Z,124
2017-02-13T06:36:15.953Z,132
2017-02-13T06:37:24.922Z,144
2017-02-13T06:38:34.007Z,156
2017-02-13T06:39:42.991Z,164
2017-02-13T06:40:51.959Z,176
2017-02-13T06:42:01.051Z,188
2017-02-13T06:43:10.108Z,196
2017-02-13T06:44:19.070Z,208
2017-02-13T06:45:28.087Z,224
2017-02-13T06:46:37.061Z,236
2017-02-13T06:47:46.044Z,248
2017-02-13T06:48:55.115Z,260
2017-02-13T06:50:04.105Z,272
2017-02-13T06:51:13.087Z,288
2017-02-13T06:52:22.466Z,300
2017-02-13T06:53:31.439Z,312
2017-02-13T06:54:40.451Z,328
2017-02-13T06:55:49.508Z,344
2017-02-13T06:56:58.490Z,356
2017-02-13T06:58:07.474Z,368
2017-02-13T06:59:16.561Z,380
2017-02-13T07:00:25.636Z,392
2017-02-13T07:01:34.645Z,408
2017-02-13T07:02:43.611Z,424
2017-02-13T07:03:52.584Z,436
2017-02-13T07:05:01.571Z,452
2017-02-13T07:06:10.945Z,468
2017-02-13T07:07:20.334Z,480
2017-02-13T07:08:29.317Z,492
2017-02-13T07:09:38.298Z,504
2017-02-13T07:10:47.445Z,516
2017-02-13T07:11:56.444Z,528
2017-02-13T07:13:05.528Z,544
2017-02-13T07:14:14.600Z,552
2017-02-13T07:15:23.577Z,572
2017-02-13T07:16:32.644Z,584
2017-02-13T07:17:41.626Z,600
2017-02-13T07:18:50.694Z,604
2017-02-13T07:19:59.661Z,628
2017-02-13T07:21:08.731Z,640
2017-02-13T07:22:17.718Z,648
2017-02-13T07:23:26.695Z,660
2017-02-13T07:24:35.677Z,664
2017-02-13T07:25:44.757Z,680
2017-02-13T07:26:53.744Z,696
2017-02-13T07:28:02.734Z,704
2017-02-13T07:29:11.710Z,712
2017-02-13T07:30:20.691Z,728
2017-02-13T07:31:29.747Z,736
2017-02-13T07:32:38.740Z,752
2017-02-13T07:33:47.727Z,768
2017-02-13T07:34:56.882Z,784
2017-02-13T07:36:05.870Z,788
2017-02-13T07:37:14.878Z,800
2017-02-13T07:38:23.862Z,816
2017-02-13T07:39:32.832Z,828
2017-02-13T07:40:42.212Z,832
2017-02-13T07:41:51.198Z,844
2017-02-13T07:43:00.272Z,852
2017-02-13T07:44:09.248Z,864
2017-02-13T07:45:18.236Z,888
2017-02-13T07:46:27.301Z,884
2017-02-13T07:47:36.287Z,900
2017-02-13T07:48:45.353Z,908
2017-02-13T07:49:54.333Z,916
2017-02-13T07:51:03.331Z,932
2017-02-13T07:52:12.295Z,944
2017-02-13T07:53:21.351Z,952
2017-02-13T07:54:30.327Z,964
2017-02-13T07:55:39.341Z,976
2017-02-13T07:56:48.415Z,968
2017-02-13T07:57:57.804Z,988
2017-02-13T07:59:06.789Z,992
2017-02-13T08:00:15.759Z,1004
2017-02-13T08:01:24.737Z,1012
2017-02-13T08:02:33.710Z,1016
2017-02-13T08:03:42.727Z,1020
2017-02-13T08:04:51.703Z,1032
2017-02-13T08:06:00.787Z,1052
2017-02-13T08:07:09.781Z,1044
2017-02-13T08:08:18.759Z,1052
2017-02-13T08:09:27.724Z,1056
2017-02-13T08:10:36.711Z,1076
2017-02-13T08:11:45.696Z,1072
2017-02-13T08:12:54.695Z,1080
2017-02-13T08:14:03.680Z,1084
2017-02-13T08:15:13.061Z,1104
2017-02-13T08:16:22.028Z,1112
2017-02-13T08:17:30.998Z,1108
2017-02-13T08:18:40.005Z,1112
2017-02-13T08:19:49.003Z,1128
2017-02-13T08:20:58.396Z,1116
2017-02-13T08:22:07.868Z,1128
2017-02-13T08:23:16.922Z,1128
2017-02-13T08:24:25.904Z,1136
2017-02-13T08:25:34.895Z,1152
2017-02-13T08:26:43.919Z,1160
2017-02-13T08:27:52.885Z,1160
2017-02-13T08:29:01.861Z,1168
2017-02-13T08:30:10.846Z,1180
2017-02-13T08:31:19.838Z,1188
2017-02-13T08:32:28.861Z,1196
2017-02-13T08:33:38.025Z,1212
2017-02-13T08:34:47.007Z,1200
2017-02-13T08:35:55.986Z,1212
2017-02-13T08:37:04.966Z,1200
2017-02-13T08:38:14.048Z,1216
2017-02-13T08:39:23.028Z,1228
2017-02-13T08:40:32.004Z,1232
2017-02-13T08:41:41.058Z,1232
2017-02-13T08:42:50.029Z,1236
2017-02-13T08:43:59.516Z,1256
2017-02-13T08:45:08.502Z,1252
2017-02-13T08:46:17.471Z,1244
2017-02-13T08:47:26.546Z,1256
2017-02-13T08:48:35.611Z,1256
2017-02-13T08:49:45.096Z,1252
2017-02-13T08:50:54.079Z,1252
2017-02-13T08:52:03.063Z,1264
2017-02-13T08:53:12.100Z,1268
2017-02-13T08:54:21.487Z,1280
2017-02-13T08:55:30.464Z,1284
2017-02-13T08:56:39.437Z,1288
2017-02-13T08:57:48.411Z,1292
2017-02-13T08:58:57.390Z,1308
2017-02-13T09:00:06.390Z,1308
2017-02-13T09:01:15.381Z,1312
2017-02-13T09:02:24.353Z,1324
2017-02-13T09:03:33.340Z,1324
2017-02-13T09:04:42.337Z,1332
2017-02-13T09:05:51.326Z,1336
2017-02-13T09:07:00.306Z,1332
2017-02-13T09:08:09.285Z,1344
2017-02-13T09:09:18.350Z,1348
2017-02-13T09:10:27.410Z,1360
2017-02-13T09:11:36.506Z,1372
2017-02-13T09:12:45.518Z,1372
2017-02-13T09:13:54.506Z,1372
2017-02-13T09:15:03.491Z,1380
2017-02-13T09:16:12.571Z,1380
2017-02-13T09:17:21.537Z,1376
2017-02-13T09:18:30.534Z,1376
2017-02-13T09:19:39.532Z,1380
2017-02-13T09:20:48.538Z,1384
2017-02-13T09:21:57.520Z,1380
2017-02-13T09:23:06.494Z,1380
2017-02-13T09:24:15.462Z,1384
2017-02-13T09:25:24.460Z,1388
2017-02-13T09:26:33.517Z,1380
2017-02-13T09:27:42.509Z,1384
2017-02-13T09:28:51.481Z,1396
2017-02-13T09:30:00.561Z,1416
2017-02-13T09:31:09.531Z,1416
2017-02-13T09:32:18.605Z,1408
2017-02-13T09:33:27.695Z,1408
2017-02-13T09:34:36.662Z,1408
2017-02-13T09:35:48.117Z,1416
2017-02-13T09:36:57.897Z,1420
2017-02-13T09:38:06.866Z,1424
2017-02-13T09:39:15.851Z,1440
2017-02-13T09:40:24.850Z,1436
2017-02-13T09:41:33.929Z,1452
2017-02-13T09:42:42.915Z,1452
2017-02-13T09:43:51.910Z,1452
2017-02-13T09:45:00.895Z,1452
2017-02-13T09:46:09.886Z,1456
2017-02-13T09:47:19.368Z,1456
2017-02-13T09:48:28.350Z,1452
2017-02-13T09:49:37.340Z,1452
2017-02-13T09:50:46.415Z,1464
2017-02-13T09:51:55.385Z,1460
2017-02-13T09:53:04.783Z,1460
2017-02-13T09:54:13.840Z,1460
2017-02-13T09:55:23.460Z,1460
2017-02-13T09:56:33.894Z,1464
2017-02-13T09:57:43.334Z,1456
2017-02-13T09:58:52.347Z,1472
2017-02-13T10:00:01.349Z,1488
2017-02-13T10:01:11.008Z,1480
2017-02-13T10:02:20.612Z,1472
2017-02-13T10:03:29.695Z,1468
2017-02-13T10:04:39.183Z,1460
2017-02-13T10:05:48.249Z,1468
2017-02-13T10:06:57.498Z,1476
2017-02-13T10:08:07.095Z,1468
2017-02-13T10:09:17.050Z,1464
2017-02-13T10:10:26.437Z,1456
2017-02-13T10:11:35.636Z,1464
2017-02-13T10:12:45.407Z,1464
2017-02-13T10:13:54.950Z,1476
2017-02-13T10:15:04.563Z,1464
2017-02-13T10:16:13.702Z,1460
2017-02-13T10:17:22.718Z,1460
2017-02-13T10:18:31.700Z,1448
2017-02-13T10:19:40.954Z,1448
2017-02-13T10:20:51.055Z,1452
2017-02-13T10:22:00.641Z,1460
2017-02-13T10:23:10.575Z,1464
2017-02-13T10:24:20.267Z,1452
2017-02-13T10:25:30.512Z,1456
2017-02-13T10:26:40.031Z,1472
2017-02-13T10:27:49.859Z,1472
2017-02-13T10:28:58.844Z,1468
2017-02-13T10:30:07.817Z,1472
2017-02-13T10:31:17.197Z,1460
2017-02-13T10:32:26.181Z,1440
2017-02-13T10:33:35.156Z,1460
2017-02-13T10:34:44.131Z,1464
2017-02-13T10:35:53.199Z,1460
2017-02-13T10:37:02.180Z,1464
2017-02-13T10:38:11.157Z,1464
2017-02-13T10:39:20.133Z,1468
2017-02-13T10:40:29.521Z,1468
2017-02-13T10:41:38.495Z,1472
2017-02-13T10:42:47.474Z,1464
2017-02-13T10:43:56.546Z,1476
2017-02-13T10:45:05.528Z,1460
2017-02-13T10:46:14.512Z,1464
2017-02-13T10:47:23.577Z,1476
2017-02-13T10:48:32.633Z,1476
2017-02-13T10:49:41.632Z,1468
2017-02-13T10:50:50.609Z,1472
2017-02-13T10:51:59.990Z,1460
2017-02-13T10:53:08.972Z,1452
2017-02-13T10:54:18.061Z,1472
2017-02-13T10:55:27.036Z,1476
2017-02-13T10:56:36.008Z,1472
2017-02-13T10:57:45.003Z,1468
2017-02-13T10:58:53.974Z,1464
2017-02-13T11:00:02.948Z,1464
2017-02-13T11:01:11.937Z,1464
2017-02-13T11:02:20.900Z,1456
2017-02-13T11:03:29.902Z,1452
2017-02-13T11:04:38.904Z,1460
2017-02-13T11:05:47.893Z,1468
2017-02-13T11:06:56.956Z,1476
2017-02-13T11:08:05.942Z,1476
2017-02-13T11:09:15.335Z,1460
2017-02-13T11:10:24.330Z,1460
2017-02-13T11:11:33.314Z,1460
2017-02-13T11:12:42.300Z,1464
2017-02-13T11:13:51.287Z,1468
2017-02-13T11:15:00.257Z,1452
2017-02-13T11:16:09.854Z,1464
2017-02-13T11:17:18.846Z,1448
2017-02-13T11:18:27.828Z,1432
2017-02-13T11:19:36.812Z,1444
2017-02-13T11:20:45.792Z,1452
2017-02-13T11:21:54.768Z,1456
2017-02-13T11:23:03.761Z,1452
2017-02-13T11:24:12.738Z,1448
2017-02-13T11:25:21.717Z,1448
2017-02-13T11:26:30.692Z,1448
2017-02-13T11:27:39.669Z,1448
2017-02-13T11:28:48.667Z,1448
2017-02-13T11:29:58.170Z,1448
2017-02-13T11:31:07.169Z,1440
2017-02-13T11:32:16.182Z,1436
2017-02-13T11:33:25.588Z,1440
2017-02-13T11:34:34.740Z,1432
2017-02-13T11:35:43.734Z,1440
2017-02-13T11:36:52.804Z,1448
2017-02-13T11:38:02.188Z,1444
2017-02-13T11:39:11.181Z,1420
2017-02-13T11:40:20.179Z,1412
2017-02-13T11:41:29.181Z,1416
2017-02-13T11:42:38.163Z,1408
2017-02-13T11:43:47.146Z,1408
2017-02-13T11:44:56.210Z,1408
2017-02-13T11:46:05.598Z,1404
2017-02-13T11:47:14.589Z,1412
2017-02-13T11:48:23.574Z,1420
2017-02-13T11:49:32.561Z,1412
2017-02-13T11:50:41.544Z,1404
2017-02-13T11:51:50.527Z,1408
2017-02-13T11:52:59.504Z,1408
2017-02-13T11:54:08.505Z,1408
2017-02-13T11:55:17.486Z,1404
2017-02-13T11:56:26.461Z,1400
2017-02-13T11:57:35.566Z,1384
2017-02-13T11:58:44.572Z,1380
2017-02-13T11:59:53.649Z,1384
2017-02-13T12:01:02.619Z,1392
2017-02-13T12:02:11.623Z,1388
2017-02-13T12:03:20.604Z,1388
2017-02-13T12:04:29.604Z,1388
2017-02-13T12:05:38.610Z,1384
2017-02-13T12:06:47.609Z,1376
2017-02-13T12:07:56.787Z,1380
2017-02-13T12:09:05.772Z,1380
2017-02-13T12:10:14.748Z,1380
2017-02-13T12:11:23.808Z,1360
2017-02-13T12:12:32.910Z,1348
2017-02-13T12:13:41.915Z,1352
2017-02-13T12:14:50.886Z,1344
2017-02-13T12:15:59.896Z,1344
2017-02-13T12:17:08.977Z,1340
2017-02-13T12:18:17.955Z,1340
2017-02-13T12:19:26.933Z,1340
2017-02-13T12:20:35.936Z,1340
2017-02-13T12:21:45.087Z,1336
2017-02-13T12:22:54.104Z,1348
2017-02-13T12:24:03.122Z,1344
2017-02-13T12:25:12.091Z,1344
2017-02-13T12:26:21.081Z,1340
2017-02-13T12:27:30.080Z,1332
2017-02-13T12:28:39.077Z,1332
2017-02-13T12:29:48.147Z,1328
2017-02-13T12:30:58.167Z,1332
2017-02-13T12:32:07.382Z,1320
2017-02-13T12:33:16.387Z,1320
2017-02-13T12:34:25.607Z,1308
2017-02-13T12:35:34.860Z,1312
2017-02-13T12:36:43.945Z,1312
2017-02-13T12:37:52.922Z,1312
2017-02-13T12:39:02.100Z,1320
2017-02-13T12:40:11.092Z,1308
2017-02-13T12:41:20.090Z,1308
2017-02-13T12:42:29.089Z,1300
2017-02-13T12:43:38.366Z,1296
2017-02-13T12:45:38.378Z,1296
2017-02-13T12:46:47.484Z,1296
2017-02-13T12:47:56.504Z,1288
2017-02-13T12:49:05.477Z,1276
2017-02-13T12:50:14.453Z,1272
2017-02-13T12:51:23.435Z,1268
2017-02-13T12:52:32.607Z,1264
2017-02-13T12:53:42.034Z,1268
2017-02-13T12:54:52.240Z,1264
2017-02-13T12:56:01.230Z,1264
2017-02-13T12:57:10.704Z,1264
2017-02-13T12:58:20.182Z,1252
2017-02-13T12:59:29.176Z,1248
2017-02-13T13:00:38.184Z,1244
2017-02-13T13:01:47.724Z,1240
2017-02-13T13:02:56.693Z,1244
2017-02-13T13:04:05.686Z,1236
2017-02-13T13:05:14.661Z,1236
2017-02-13T13:06:23.676Z,1228
2017-02-13T13:07:32.663Z,1220
2017-02-13T13:08:41.656Z,1212
2017-02-13T13:09:50.649Z,1216
2017-02-13T13:11:00.276Z,1216
2017-02-13T13:12:09.255Z,1208
2017-02-13T13:13:18.230Z,1200
2017-02-13T13:14:27.216Z,1204
2017-02-13T13:15:36.205Z,1192
2017-02-13T13:16:45.203Z,1192
2017-02-13T13:17:54.193Z,1192
2017-02-13T13:19:03.193Z,1192
2017-02-13T13:20:12.192Z,1192
2017-02-13T13:21:21.779Z,1188
2017-02-13T13:22:30.865Z,1180
2017-02-13T13:23:39.875Z,1180
2017-02-13T13:24:48.948Z,1176
2017-02-13T13:25:58.509Z,1172
2017-02-13T13:27:07.944Z,1168
2017-02-13T13:28:17.717Z,1168
2017-02-13T13:29:27.441Z,1232
2017-02-13T13:30:37.028Z,1248
2017-02-13T13:31:46.344Z,1168
2017-02-13T13:32:55.899Z,1160
2017-02-13T13:34:05.224Z,1156
2017-02-13T13:35:14.694Z,1144
2017-02-13T13:36:23.797Z,1144
2017-02-13T13:37:32.773Z,1140
2017-02-13T13:38:41.780Z,1140
2017-02-13T13:39:51.470Z,1140
2017-02-13T13:41:00.463Z,1136
2017-02-13T13:42:10.318Z,1144
2017-02-13T13:43:22.972Z,1144
2017-02-13T13:44:32.940Z,1156
2017-02-13T13:45:41.909Z,1172
2017-02-13T13:46:51.789Z,1208
2017-02-13T13:48:01.131Z,1248
2017-02-13T13:49:10.111Z,1244
2017-02-13T13:50:19.677Z,1200
2017-02-13T13:51:29.995Z,1164
2017-02-13T13:52:38.979Z,1120
2017-02-13T13:53:48.553Z,1092
2017-02-13T13:54:57.531Z,1076
2017-02-13T13:56:06.534Z,1064
2017-02-13T13:57:15.655Z,1048
2017-02-13T13:58:24.624Z,956
2017-02-13T13:59:33.689Z,940
2017-02-13T14:00:42.673Z,940
2017-02-13T14:01:51.751Z,932
2017-02-13T14:03:00.732Z,928
2017-02-13T14:04:09.695Z,928
2017-02-13T14:05:19.510Z,924
2017-02-13T14:06:28.922Z,920
2017-02-13T14:07:37.914Z,912
2017-02-13T14:08:46.928Z,904
2017-02-13T14:09:55.894Z,900
2017-02-13T14:11:04.880Z,896
2017-02-13T14:12:13.854Z,888
2017-02-13T14:13:22.939Z,876
2017-02-13T14:14:31.926Z,872
2017-02-13T14:15:40.917Z,864
2017-02-13T14:16:49.976Z,856
2017-02-13T14:17:58.979Z,852
2017-02-13T14:19:07.960Z,920
2017-02-13T14:20:17.387Z,912
2017-02-13T14:21:26.369Z,908
2017-02-13T14:22:35.343Z,900
2017-02-13T14:23:44.339Z,892
2017-02-13T14:24:53.314Z,884
2017-02-13T14:26:02.306Z,880
2017-02-13T14:27:11.294Z,876
2017-02-13T14:28:20.273Z,864
2017-02-13T14:29:29.250Z,860
2017-02-13T14:30:38.236Z,852
2017-02-13T14:31:47.337Z,848
2017-02-13T14:32:56.333Z,840
2017-02-13T14:34:05.305Z,836
2017-02-13T14:35:14.806Z,824
2017-02-13T14:36:23.878Z,820
2017-02-13T14:37:32.864Z,812
2017-02-13T14:38:41.864Z,808
2017-02-13T14:39:50.948Z,800
2017-02-13T14:40:59.926Z,792
2017-02-13T14:42:08.895Z,784
2017-02-13T14:43:17.967Z,776
2017-02-13T14:44:26.969Z,772
2017-02-13T14:45:36.058Z,764
2017-02-13T14:46:45.054Z,760
2017-02-13T14:47:54.050Z,752
2017-02-13T14:49:03.027Z,744
2017-02-13T14:50:12.104Z,736
2017-02-13T14:51:21.073Z,728
2017-02-13T14:52:30.355Z,716
2017-02-13T14:53:39.518Z,708
2017-02-13T14:54:48.522Z,700
2017-02-13T14:55:57.585Z,692
2017-02-13T14:57:06.582Z,688
2017-02-13T14:58:15.965Z,676
2017-02-13T14:59:24.942Z,672
2017-02-13T15:00:33.925Z,660
2017-02-13T15:01:43.004Z,652
2017-02-13T15:02:52.003Z,648
2017-02-13T15:04:00.980Z,636
2017-02-13T15:05:09.978Z,632
2017-02-13T15:06:19.804Z,624
2017-02-13T15:07:28.795Z,612
2017-02-13T15:08:37.770Z,608
2017-02-13T15:09:46.770Z,596
2017-02-13T15:10:56.143Z,592
2017-02-13T15:12:05.144Z,580
2017-02-13T15:13:14.127Z,576
2017-02-13T15:14:23.283Z,568
2017-02-13T15:15:32.342Z,560
2017-02-13T15:16:41.322Z,552
2017-02-13T15:17:50.333Z,540
2017-02-13T15:18:59.308Z,532
2017-02-13T15:20:08.298Z,520
2017-02-13T15:21:17.293Z,516
2017-02-13T15:22:26.272Z,504
2017-02-13T15:23:35.241Z,496
2017-02-13T15:24:44.242Z,488
2017-02-13T15:25:53.273Z,476
2017-02-13T15:27:02.248Z,468
2017-02-13T15:28:11.235Z,460
2017-02-13T15:29:20.215Z,452
2017-02-13T15:30:29.209Z,440
2017-02-13T15:31:38.194Z,428
2017-02-13T15:32:47.199Z,420
2017-02-13T15:33:56.195Z,412
2017-02-13T15:35:05.191Z,400
2017-02-13T15:36:14.203Z,392
2017-02-13T15:37:23.191Z,384
2017-02-13T15:38:32.181Z,368
2017-02-13T15:39:41.179Z,364
2017-02-13T15:40:50.330Z,352
2017-02-13T15:41:59.304Z,340
2017-02-13T15:43:08.279Z,332
2017-02-13T15:44:17.273Z,320
2017-02-13T15:45:26.266Z,312
2017-02-13T15:46:35.361Z,300
2017-02-13T15:47:44.355Z,288
2017-02-13T15:48:53.354Z,280
2017-02-13T15:50:02.427Z,268
2017-02-13T15:51:11.434Z,256
2017-02-13T15:52:20.406Z,248
2017-02-13T15:53:29.892Z,236
2017-02-13T15:54:38.885Z,228
2017-02-13T15:55:47.947Z,216
2017-02-13T15:56:56.931Z,208
2017-02-13T15:58:05.904Z,196
2017-02-13T15:59:14.894Z,184
2017-02-13T16:00:23.883Z,176
2017-02-13T16:01:32.867Z,164
2017-02-13T16:02:41.856Z,156
2017-02-13T16:03:50.860Z,144
2017-02-13T16:04:59.837Z,136
2017-02-13T16:06:08.847Z,128
2017-02-13T16:07:17.957Z,120
2017-02-13T16:08:26.943Z,112